Rome Heights, Illinois
Current Conditions -  °F | °C
As of 7:35 PM on Sunday 23 Nov 2014 (Local Time) from KC75 Reporting Station
Moderate Rain Moderate Rain  
Wind Chill:   Ceiling: 500
Heat Index:   Visibility: 3mi
Dew Point:   Wind: 3mph
Humidity: 96%   Direction: 150°SSE
Pressure: 29.25"   Gusts: NA
Location:  40.915°N, 89.5303°W
Report Text: KC75 240135Z AUTO 15003KT 3SM RA OVC005 09/09 A2925 RMK AO2 P0004 T00910085
Loading
Personal Weather Stations






























Interactive Weather Map New forecast layout! Learn more

10-Day Weather Forecast

Advertisements
Track Severe Weather on mobile